Time;durP1;ratioP1;P1;durP2;ratioP2;P2;SDS_P1;SDS_P2;PMS_P1;PMS_P2;Temp;Humidity;BMP_temperature;BMP_pressure;BME280_temperature;BME280_humidity;BME280_pressure;Samples;Min_cycle;Max_cycle;Signal;HPM_P1;HPM_P2
2023/07/25 00:16:20;;;;;;;9.15;4.30;;;;;;;27.03;42.56;99263.19;41615145;28;20046;-81
2023/07/25 00:36:21;;;;;;;10.43;3.88;;;;;;;26.89;41.85;99251.56;41631071;28;20168;-79
2023/07/25 00:56:23;;;;;;;6.18;3.47;;;;;;;26.84;40.63;99335.28;41627135;28;20042;-80
2023/07/25 01:16:26;;;;;;;10.98;4.00;;;;;;;26.70;42.35;99402.44;41625098;28;20041;-82
2023/07/25 01:36:26;;;;;;;;;;;;;;;27.02;42.85;99395.19;41623596;28;20038;-83
2023/07/25 01:56:27;;;;;;;7.47;3.63;;;;;;;27.12;43.42;99273.53;41614204;28;19949;-82
2023/07/25 02:16:28;;;;;;;6.95;3.20;;;;;;;27.19;43.81;99236.41;41626972;28;20056;-80
2023/07/25 02:36:28;;;;;;;7.25;3.03;;;;;;;27.24;43.98;99234.00;41606094;28;20053;-83
2023/07/25 02:56:34;;;;;;;4.82;2.85;;;;;;;27.26;44.11;99069.88;41617897;28;20077;-82
2023/07/25 03:16:35;;;;;;;4.88;3.33;;;;;;;27.32;44.47;99180.72;41734638;28;20045;-83
2023/07/25 03:36:36;;;;;;;5.30;2.95;;;;;;;27.35;44.84;99199.97;41739907;28;20135;-84
2023/07/25 03:56:36;;;;;;;11.07;3.20;;;;;;;27.19;47.86;99179.78;41740862;28;20146;-80
2023/07/25 04:16:36;;;;;;;6.63;2.53;;;;;;;25.80;50.72;99210.25;41637120;28;20040;-77
2023/07/25 04:36:39;;;;;;;16.27;3.13;;;;;;;24.85;55.56;99185.63;41748865;28;20099;-80
2023/07/25 04:56:41;;;;;;;14.75;3.97;;;;;;;24.40;58.18;99219.66;41759471;28;20052;-79
2023/07/25 05:16:41;;;;;;;7.95;3.15;;;;;;;24.34;57.31;99148.88;41776106;28;20458;-79
2023/07/25 05:36:42;;;;;;;7.40;2.72;;;;;;;24.43;55.60;99158.47;41790112;28;20128;-78
2023/07/25 05:56:42;;;;;;;9.75;3.08;;;;;;;24.70;51.49;99177.59;41752826;28;20522;-83
2023/07/25 06:16:42;;;;;;;6.25;2.38;;;;;;;24.99;49.17;99165.56;41771957;28;20071;-81
2023/07/25 06:36:44;;;;;;;4.55;2.38;;;;;;;25.09;49.06;99134.38;41705776;28;20548;-81
2023/07/25 06:56:44;;;;;;;5.20;2.70;;;;;;;25.48;47.14;99104.31;41750075;28;20147;-81
2023/07/25 07:16:46;;;;;;;4.43;2.45;;;;;;;25.75;45.28;99053.56;41747564;28;20049;-77
2023/07/25 07:36:46;;;;;;;7.97;3.30;;;;;;;26.02;46.30;99025.56;41742390;28;20094;-76
2023/07/25 07:56:47;;;;;;;5.72;2.60;;;;;;;26.16;48.36;99039.88;41756613;28;20084;-79
2023/07/25 08:16:47;;;;;;;8.18;3.00;;;;;;;26.08;49.43;99024.06;41759101;28;20061;-78
2023/07/25 08:36:49;;;;;;;5.53;2.40;;;;;;;25.93;51.23;98986.88;41765759;28;20049;-78
2023/07/25 08:56:51;;;;;;;9.00;2.90;;;;;;;25.70;55.22;99033.69;41775415;28;20049;-79
2023/07/25 09:16:53;;;;;;;4.35;2.53;;;;;;;25.70;56.83;99181.34;41814145;28;20044;-78
2023/07/25 09:36:54;;;;;;;12.20;3.35;;;;;;;25.46;58.53;99309.56;41783866;28;20076;-81
2023/07/25 09:56:55;;;;;;;7.35;3.25;;;;;;;25.65;57.43;99250.78;41823088;28;20045;-79
2023/07/25 10:16:57;;;;;;;6.07;3.38;;;;;;;25.71;56.51;99207.66;41824139;28;20139;-81
2023/07/25 10:37:27;;;;;;;6.22;3.22;;;;;;;25.81;57.71;99254.34;41789357;28;20052;-81
2023/07/25 10:57:28;;;;;;;5.78;3.22;;;;;;;25.93;56.05;99149.50;41811173;28;20039;-82
2023/07/25 11:17:29;;;;;;;5.70;3.47;;;;;;;25.92;55.79;99129.28;41796178;28;20041;-82
2023/07/25 11:37:30;;;;;;;5.78;3.55;;;;;;;25.87;56.67;99041.47;41798382;28;20568;-82
2023/07/25 11:57:30;;;;;;;5.05;3.25;;;;;;;25.46;56.67;99036.59;41780474;28;20045;-82
2023/07/25 12:17:41;;;;;;;4.80;3.08;;;;;;;25.30;54.47;99064.84;41808152;28;20053;-80
2023/07/25 12:37:41;;;;;;;5.38;3.47;;;;;;;24.80;57.46;99079.44;41851843;28;20107;-88
2023/07/25 12:57:42;;;;;;;4.78;3.08;;;;;;;24.87;58.62;98961.25;41840957;28;20049;-84
2023/07/25 13:17:42;;;;;;;6.60;3.80;;;;;;;24.84;59.87;98920.06;41808971;28;20049;-86
2023/07/25 13:37:43;;;;;;;7.10;3.60;;;;;;;24.55;59.91;99014.19;41823176;28;20469;-82
2023/07/25 13:57:43;;;;;;;6.22;2.97;;;;;;;24.86;58.15;99042.47;41828308;28;20045;-83
2023/07/25 14:17:44;;;;;;;12.60;2.50;;;;;;;24.97;55.25;99004.19;41731422;28;20431;-81
2023/07/25 14:37:46;;;;;;;2.85;2.03;;;;;;;25.21;53.11;98984.63;41754743;28;20053;-81
2023/07/25 14:57:46;;;;;;;3.72;2.15;;;;;;;24.96;52.83;98797.81;41651346;28;20053;-88
2023/07/25 15:17:47;;;;;;;4.85;2.08;;;;;;;25.63;51.08;98838.47;41648490;28;20041;-86
2023/07/25 15:37:47;;;;;;;3.95;2.35;;;;;;;26.23;50.69;98849.72;41635522;28;20022;-85
2023/07/25 15:57:49;;;;;;;3.92;1.90;;;;;;;26.76;47.40;98909.66;41655705;28;20071;-84
2023/07/25 16:17:50;;;;;;;2.63;1.70;;;;;;;26.51;48.03;98905.53;41638836;28;20041;-93
2023/07/25 16:37:50;;;;;;;3.47;2.08;;;;;;;26.37;49.03;98932.94;41613516;28;20068;-89
2023/07/25 16:57:53;;;;;;;3.00;2.13;;;;;;;25.90;49.67;98937.69;41633216;28;20060;-82
2023/07/25 17:17:53;;;;;;;6.05;3.08;;;;;;;25.67;50.28;98959.84;41611800;28;20405;-80
2023/07/25 17:37:54;;;;;;;3.58;2.60;;;;;;;25.29;52.05;98974.94;41576058;28;20042;-85
2023/07/25 17:58:01;;;;;;;5.45;2.85;;;;;;;25.03;51.05;98950.50;41603231;28;20033;-82
2023/07/25 18:18:02;;;;;;;9.38;3.33;;;;;;;24.79;53.66;98925.06;41687684;28;20519;-84
2023/07/25 18:38:02;;;;;;;6.10;4.28;;;;;;;24.33;55.44;98948.84;41584168;28;20045;-86
2023/07/25 18:58:03;;;;;;;4.18;3.60;;;;;;;24.15;56.82;99010.75;41580703;28;20050;-81
2023/07/25 19:18:04;;;;;;;4.75;3.30;;;;;;;24.01;55.81;98988.53;41586855;28;20037;-78
2023/07/25 19:38:06;;;;;;;8.95;3.17;;;;;;;23.60;56.71;98981.50;41595516;28;20060;-80
2023/07/25 19:58:08;;;;;;;3.97;2.75;;;;;;;23.95;55.71;98978.63;41643012;28;20084;-86
2023/07/25 20:18:09;;;;;;;6.05;4.28;;;;;;;23.54;56.62;99003.31;41637091;28;20038;-83
2023/07/25 20:38:11;;;;;;;3.67;2.78;;;;;;;23.37;56.42;98983.22;41641859;28;20064;-84
2023/07/25 20:58:12;;;;;;;4.57;2.42;;;;;;;23.00;56.90;99027.59;41655141;28;20435;-84
2023/07/25 21:18:13;;;;;;;3.30;2.60;;;;;;;22.99;57.14;99042.56;41660151;28;20374;-83
2023/07/25 21:38:13;;;;;;;3.45;2.70;;;;;;;22.82;56.78;99049.63;41676786;28;20045;-85
2023/07/25 21:58:14;;;;;;;3.65;2.88;;;;;;;22.70;56.70;99054.41;41677817;28;20704;-85
2023/07/25 22:18:15;;;;;;;2.85;2.40;;;;;;;22.84;56.31;99041.59;41645843;28;20048;-81
2023/07/25 22:38:16;;;;;;;2.80;2.00;;;;;;;22.70;55.70;99038.59;41637658;28;20029;-81
2023/07/25 22:58:18;;;;;;;2.55;2.20;;;;;;;22.69;55.33;98978.88;41647097;28;20496;-85
2023/07/25 23:18:19;;;;;;;7.15;2.85;;;;;;;22.53;55.97;98979.69;41626513;28;20046;-85
2023/07/25 23:38:19;;;;;;;4.35;2.47;;;;;;;22.53;56.35;98989.41;41648033;28;20045;-83
2023/07/25 23:58:20;;;;;;;3.45;2.13;;;;;;;22.26;56.56;99104.66;41617363;28;20049;-83
